Stanford, Illinois
Current Conditions -  °F | °C
As of 12:56 PM on Friday 21 Nov 2014 (Local Time) from KBMI Reporting Station
Clear Clear  
Wind Chill: 25°   Ceiling: Unl
Heat Index: 34°   Visibility: 10mi
Dew Point:   Wind: 12mph
Humidity: 34%   Direction: 150°SSE
Pressure: 30.38"   Gusts: NA
Location:  40.43°N, 89.22°W
Report Text: KBMI 211856Z 15010KT 10SM CLR 01/M13 A3038 RMK AO2 T00111133 SLP311
Loading
Personal Weather Stations






























Interactive Weather Map New forecast layout! Learn more

10-Day Weather Forecast

Advertisements
Track Severe Weather on mobile